createdAt,value
2018-11-05T00:04:05.948Z,51.23
2018-11-05T00:09:10.719Z,51.29
2018-11-05T00:14:14.506Z,51.44
2018-11-05T00:19:18.012Z,51.11
2018-11-05T00:24:22.840Z,51.12
2018-11-05T00:29:26.966Z,51.27
2018-11-05T00:34:30.530Z,51.43
2018-11-05T00:39:34.180Z,51.33
2018-11-05T00:44:37.798Z,51.51
2018-11-05T00:49:41.314Z,51.35
2018-11-05T00:54:44.774Z,51.18
2018-11-05T00:59:48.706Z,51.56
2018-11-05T01:04:52.615Z,51.18
2018-11-05T01:09:57.243Z,51.56
2018-11-05T01:15:01.575Z,51.31
2018-11-05T01:20:06.823Z,51.42
2018-11-05T01:25:10.968Z,51.54
2018-11-05T01:30:14.884Z,51.29
2018-11-05T01:35:18.428Z,51.34
2018-11-05T01:40:21.924Z,51.37
2018-11-05T01:45:25.526Z,51.45
2018-11-05T01:50:29.022Z,51.43
2018-11-05T01:55:32.570Z,51.28
2018-11-05T02:00:36.510Z,51.43
2018-11-05T02:05:40.485Z,51.53
2018-11-05T02:10:44.557Z,51.61
2018-11-05T02:15:49.434Z,51.67
2018-11-05T02:20:53.044Z,51.72
2018-11-05T02:25:56.506Z,51.64
2018-11-05T02:30:59.981Z,51.90
2018-11-05T02:36:03.427Z,51.89
2018-11-05T02:41:07.192Z,51.87
2018-11-05T02:46:10.678Z,51.92
2018-11-05T02:51:14.155Z,51.82
2018-11-05T02:56:17.600Z,52.41
2018-11-05T03:01:21.034Z,52.31
2018-11-05T03:06:24.456Z,52.49
2018-11-05T03:11:28.227Z,52.55
2018-11-05T03:16:31.693Z,52.94
2018-11-05T03:21:35.139Z,52.66
2018-11-05T03:26:38.573Z,52.79
2018-11-05T03:31:42.060Z,53.13
2018-11-05T03:36:45.505Z,53.21
2018-11-05T03:41:48.973Z,53.28
2018-11-05T03:46:52.845Z,53.29
2018-11-05T03:51:56.285Z,53.25
2018-11-05T03:56:59.741Z,53.41
2018-11-05T04:02:03.187Z,53.77
2018-11-05T04:07:06.618Z,53.73
2018-11-05T04:12:10.069Z,53.65
2018-11-05T04:17:13.518Z,53.97
2018-11-05T04:22:17.099Z,53.62
2018-11-05T04:27:20.567Z,53.93
2018-11-05T04:32:24.034Z,53.96
2018-11-05T04:37:27.489Z,53.93
2018-11-05T04:42:30.910Z,54.07
2018-11-05T04:47:34.415Z,54.28
2018-11-05T04:52:38.063Z,53.71
2018-11-05T04:57:41.523Z,53.69
2018-11-05T05:02:45.024Z,53.45
2018-11-05T05:07:48.511Z,53.31
2018-11-05T05:12:51.998Z,53.28
2018-11-05T05:17:55.440Z,53.39
2018-11-05T05:22:59.002Z,53.23
2018-11-05T05:28:02.364Z,52.62
2018-11-05T05:33:06.032Z,52.69
2018-11-05T05:38:09.452Z,52.57
2018-11-05T05:43:12.907Z,52.73
2018-11-05T05:48:16.362Z,52.79
2018-11-05T05:53:19.828Z,52.64
2018-11-05T05:58:23.304Z,52.73
2018-11-05T06:03:26.786Z,52.88
2018-11-05T06:08:30.251Z,52.15
2018-11-05T06:13:33.746Z,52.53
2018-11-05T06:18:37.198Z,52.62
2018-11-05T06:23:40.663Z,52.18
2018-11-05T06:28:44.200Z,52.02
2018-11-05T06:33:47.584Z,51.87
2018-11-05T06:38:51.083Z,52.04
2018-11-05T06:43:54.522Z,52.05
2018-11-05T06:48:58.175Z,51.90
2018-11-05T06:54:01.679Z,51.84
2018-11-05T06:59:05.184Z,52.27
2018-11-05T07:04:08.648Z,52.18
2018-11-05T07:09:12.665Z,51.86
2018-11-05T07:14:16.114Z,51.87
2018-11-05T07:19:19.813Z,52.12
2018-11-05T07:24:23.159Z,51.76
2018-11-05T07:29:26.636Z,51.77
2018-11-05T07:34:30.170Z,52.22
2018-11-05T07:39:33.711Z,45.73
2018-11-05T07:44:37.258Z,49.35
2018-11-05T07:49:40.767Z,50.69
2018-11-05T07:54:44.233Z,50.06
2018-11-05T07:59:47.691Z,51.00
2018-11-05T08:04:51.162Z,51.71
2018-11-05T08:09:54.607Z,52.33
2018-11-05T08:14:58.085Z,52.99
2018-11-05T08:20:01.615Z,51.99
2018-11-05T08:25:05.341Z,47.43
2018-11-05T08:30:12.796Z,46.94
2018-11-05T08:35:16.323Z,46.45
2018-11-05T08:40:21.948Z,46.26
2018-11-05T08:45:26.523Z,46.07
2018-11-05T08:50:30.014Z,44.73
2018-11-05T08:55:33.435Z,45.62
2018-11-05T09:00:42.195Z,46.10
2018-11-05T09:05:45.652Z,46.04
2018-11-05T09:10:49.432Z,46.95
2018-11-05T09:15:52.565Z,48.40
2018-11-05T09:20:56.137Z,51.08
2018-11-05T09:26:00.221Z,51.14
2018-11-05T09:31:03.683Z,52.33
2018-11-05T09:36:07.130Z,52.81
2018-11-05T09:41:10.558Z,52.18
2018-11-05T09:46:14.019Z,52.32
2018-11-05T09:51:17.459Z,52.77
2018-11-05T09:56:20.938Z,52.73
2018-11-05T10:01:24.395Z,52.58
2018-11-05T10:06:27.880Z,53.10
2018-11-05T10:11:31.323Z,51.70
2018-11-05T10:16:34.766Z,47.50
2018-11-05T10:21:38.243Z,46.70
2018-11-05T10:26:41.687Z,46.14
2018-11-05T10:31:45.133Z,45.60
2018-11-05T10:36:48.583Z,45.21
2018-11-05T10:41:52.022Z,45.99
2018-11-05T10:46:55.512Z,46.60
2018-11-05T10:51:59.129Z,46.06
2018-11-05T10:57:02.490Z,46.48
2018-11-05T11:02:11.251Z,46.53
2018-11-05T11:07:14.707Z,46.44
2018-11-05T11:12:18.186Z,46.51
2018-11-05T11:17:21.635Z,46.95
2018-11-05T11:22:25.094Z,47.00
2018-11-05T11:27:28.583Z,46.77
2018-11-05T11:32:32.098Z,47.28
2018-11-05T11:37:35.562Z,47.31
2018-11-05T11:42:39.915Z,47.23
2018-11-05T11:47:43.348Z,47.30
2018-11-05T11:52:47.075Z,47.36
2018-11-05T11:57:50.375Z,47.26
2018-11-05T12:02:58.396Z,47.11
2018-11-05T12:08:01.838Z,47.33
2018-11-05T12:13:05.365Z,47.43
2018-11-05T12:18:08.793Z,47.50
2018-11-05T12:23:12.254Z,47.44
2018-11-05T12:28:15.707Z,47.39
2018-11-05T12:33:19.170Z,47.18
2018-11-05T12:38:22.715Z,47.60
2018-11-05T12:43:26.387Z,47.22
2018-11-05T12:48:29.825Z,47.28
2018-11-05T12:53:33.279Z,47.24
2018-11-05T12:58:36.739Z,47.40
2018-11-05T13:03:40.180Z,47.32
2018-11-05T13:08:43.879Z,47.82
2018-11-05T13:13:47.315Z,47.91
2018-11-05T13:18:50.823Z,47.69
2018-11-05T13:23:54.311Z,47.93
2018-11-05T13:28:57.792Z,48.27
2018-11-05T13:34:01.240Z,48.22
2018-11-05T13:39:06.385Z,48.24
2018-11-05T13:44:09.826Z,48.11
2018-11-05T13:49:13.384Z,48.31
2018-11-05T13:54:16.913Z,48.29
2018-11-05T13:59:20.330Z,48.35
2018-11-05T14:04:23.783Z,48.19
2018-11-05T14:09:27.271Z,48.16
2018-11-05T14:14:30.764Z,48.39
2018-11-05T14:19:34.271Z,47.98
2018-11-05T14:24:37.763Z,47.97
2018-11-05T14:29:41.711Z,47.84
2018-11-05T14:34:44.778Z,49.05
2018-11-05T14:39:48.254Z,48.50
2018-11-05T14:44:51.755Z,48.17
2018-11-05T14:49:55.314Z,48.07
2018-11-05T14:54:58.805Z,47.91
2018-11-05T15:00:02.386Z,47.84
2018-11-05T15:05:07.242Z,47.61
2018-11-05T15:10:17.383Z,47.55
2018-11-05T15:15:21.514Z,47.46
2018-11-05T15:20:26.027Z,47.52
2018-11-05T15:25:29.507Z,47.76
2018-11-05T15:30:33.000Z,47.28
2018-11-05T15:35:38.689Z,47.57
2018-11-05T15:40:42.183Z,47.43
2018-11-05T15:45:45.650Z,47.43
2018-11-05T15:50:50.610Z,47.25
2018-11-05T15:55:55.058Z,47.32
2018-11-05T16:01:01.147Z,48.01
2018-11-05T16:06:05.459Z,47.70
2018-11-05T16:11:08.912Z,47.97
2018-11-05T16:16:12.466Z,48.18
2018-11-05T16:21:17.512Z,48.29
2018-11-05T16:26:21.591Z,48.30
2018-11-05T16:31:26.474Z,48.56
2018-11-05T16:36:29.960Z,48.55
2018-11-05T16:41:33.439Z,48.75
2018-11-05T16:46:36.946Z,48.52
2018-11-05T16:51:41.147Z,48.69
2018-11-05T16:56:45.168Z,48.83
2018-11-05T17:01:49.618Z,48.75
2018-11-05T17:06:53.192Z,48.81
2018-11-05T17:11:56.672Z,46.94
2018-11-05T17:17:00.230Z,46.90
2018-11-05T17:22:03.694Z,46.75
2018-11-05T17:27:07.142Z,47.52
2018-11-05T17:32:10.583Z,47.71
2018-11-05T17:37:14.034Z,48.08
2018-11-05T17:42:17.509Z,47.19
2018-11-05T17:47:20.997Z,47.13
2018-11-05T17:52:24.538Z,47.00
2018-11-05T17:57:28.021Z,47.37
2018-11-05T18:02:31.519Z,47.19
2018-11-05T18:07:36.492Z,47.14
2018-11-05T18:12:39.954Z,47.04
2018-11-05T18:17:44.556Z,46.64
2018-11-05T18:22:48.016Z,46.67
2018-11-05T18:27:51.952Z,46.50
2018-11-05T18:32:55.510Z,46.04
2018-11-05T18:37:59.022Z,46.04
2018-11-05T18:43:02.607Z,46.34
2018-11-05T18:48:06.107Z,46.26
2018-11-05T18:53:09.602Z,46.56
2018-11-05T18:58:13.108Z,46.47
2018-11-05T19:03:16.611Z,46.18
2018-11-05T19:08:20.070Z,46.51
2018-11-05T19:13:23.550Z,45.92
2018-11-05T19:18:27.085Z,45.01
2018-11-05T19:23:30.659Z,45.14
2018-11-05T19:28:34.094Z,45.12
2018-11-05T19:33:37.528Z,45.48
2018-11-05T19:38:41.017Z,45.23
2018-11-05T19:43:44.466Z,45.48
2018-11-05T19:48:47.956Z,45.21
2018-11-05T19:53:51.413Z,45.72
2018-11-05T19:58:54.873Z,45.51
2018-11-05T20:03:58.451Z,45.48
2018-11-05T20:09:01.915Z,45.51
2018-11-05T20:14:05.374Z,45.39
2018-11-05T20:19:08.881Z,45.22
2018-11-05T20:24:12.383Z,45.75
2018-11-05T20:29:15.825Z,45.41
2018-11-05T20:34:19.709Z,45.39
2018-11-05T20:39:22.971Z,45.38
2018-11-05T20:44:26.520Z,45.32
2018-11-05T20:49:29.981Z,45.49
2018-11-05T20:54:33.442Z,45.41
2018-11-05T20:59:36.970Z,46.13
2018-11-05T21:04:40.445Z,46.26
2018-11-05T21:09:44.114Z,46.16
2018-11-05T21:14:47.664Z,46.58
2018-11-05T21:19:51.160Z,46.38
2018-11-05T21:24:54.659Z,46.40
2018-11-05T21:29:58.117Z,46.49
2018-11-05T21:35:01.643Z,46.76
2018-11-05T21:40:06.822Z,47.10
2018-11-05T21:45:11.595Z,46.86
2018-11-05T21:50:16.317Z,47.12
2018-11-05T21:55:19.762Z,47.28
2018-11-05T22:00:25.416Z,47.09
2018-11-05T22:05:28.898Z,47.42
2018-11-05T22:10:32.330Z,47.50
2018-11-05T22:15:45.324Z,47.42
2018-11-05T22:20:48.763Z,47.42
2018-11-05T22:25:52.220Z,47.64
2018-11-05T22:30:55.746Z,47.67
2018-11-05T22:35:59.205Z,47.89
2018-11-05T22:41:02.670Z,47.86
2018-11-05T22:46:06.581Z,47.76
2018-11-05T22:51:10.026Z,47.88
2018-11-05T22:56:13.528Z,47.92
2018-11-05T23:01:22.212Z,47.98
2018-11-05T23:06:25.715Z,47.94
2018-11-05T23:11:29.165Z,48.00
2018-11-05T23:16:32.674Z,48.04
2018-11-05T23:21:36.130Z,48.40
2018-11-05T23:26:39.549Z,48.49
2018-11-05T23:31:42.982Z,48.54
2018-11-05T23:36:46.437Z,48.23
2018-11-05T23:41:49.876Z,48.42
2018-11-05T23:46:53.333Z,48.22
2018-11-05T23:51:56.960Z,48.49
2018-11-05T23:57:00.271Z,48.89
